首页
METAR-TAF:

METAR-TAF

机场 :

Gökçeada, 土耳其

纬度: 40-12-04N, 经度: 25-52-56E, 海拔: 22米

当前天气观测

该预报发布于28分钟前的07:50 UTC
风速2节,风向西转西南
温度 14°C
湿度 100%
气压 1016 hPa
能见度10公里或以上
多云层高于2000英尺
多云层高于7000英尺

METAR: LTFK 200750Z 24002KT 9999 BKN020 BKN070 14/14 Q1016

时间: 11:18 (08:18 UTC)

预报

该预报发布于3小时和38分钟前的04:40 UTC
预报有效从20日的 06点(UTC)到 20日的 15点(UTC)
风速8节,风向南转南东
能见度10公里或以上
散云层高于3500英尺
多云层高于20000英尺

TAF: LTFK 200440Z 2006/2015 15008KT 9999 SCT035 BKN200

超过4000个机场的气象观测和天气预报(METAR&TAF报告)。

可查询的气象台以黄色和红色小点在地图上表示。

将鼠标移到小点上方,可查看气象台名称。

然后点击查看天气观测和预报。

如需切换地图:点击带黑十字的绿色按钮放大地图;点击带横线的绿色按钮缩小地图;或者点击绿色箭头查看邻近地区的地图。


METAR-TAF: